sensor_id;sensor_type;location;lat;lon;timestamp;temperature;humidity
19538;DHT22;9914;51.008;4.300;2023-02-27T00:02:07;1.90;99.90
19538;DHT22;9914;51.008;4.300;2023-02-27T00:04:33;1.80;99.90
19538;DHT22;9914;51.008;4.300;2023-02-27T00:06:58;1.70;99.90
19538;DHT22;9914;51.008;4.300;2023-02-27T00:09:24;1.90;99.90
19538;DHT22;9914;51.008;4.300;2023-02-27T00:11:50;1.90;99.90
19538;DHT22;9914;51.008;4.300;2023-02-27T00:14:15;1.80;99.90
19538;DHT22;9914;51.008;4.300;2023-02-27T00:16:41;1.70;99.90
19538;DHT22;9914;51.008;4.300;2023-02-27T00:19:06;1.60;99.90
19538;DHT22;9914;51.008;4.300;2023-02-27T00:21:32;1.80;99.90
19538;DHT22;9914;51.008;4.300;2023-02-27T00:23:59;1.90;99.90
19538;DHT22;9914;51.008;4.300;2023-02-27T00:26:25;1.80;99.90
19538;DHT22;9914;51.008;4.300;2023-02-27T00:28:51;1.70;99.90
19538;DHT22;9914;51.008;4.300;2023-02-27T00:31:16;1.50;99.90
19538;DHT22;9914;51.008;4.300;2023-02-27T00:33:42;1.60;99.90
19538;DHT22;9914;51.008;4.300;2023-02-27T00:36:07;1.60;99.90
19538;DHT22;9914;51.008;4.300;2023-02-27T00:38:34;1.50;99.90
19538;DHT22;9914;51.008;4.300;2023-02-27T00:40:59;1.40;99.90
19538;DHT22;9914;51.008;4.300;2023-02-27T00:43:25;1.50;99.90
19538;DHT22;9914;51.008;4.300;2023-02-27T00:45:51;1.40;99.90
19538;DHT22;9914;51.008;4.300;2023-02-27T00:48:16;1.50;99.90
19538;DHT22;9914;51.008;4.300;2023-02-27T00:50:42;1.50;99.90
19538;DHT22;9914;51.008;4.300;2023-02-27T00:53:08;1.50;99.90
19538;DHT22;9914;51.008;4.300;2023-02-27T00:55:33;1.50;99.90
19538;DHT22;9914;51.008;4.300;2023-02-27T00:57:59;1.40;99.90
19538;DHT22;9914;51.008;4.300;2023-02-27T01:00:25;1.40;99.90
19538;DHT22;9914;51.008;4.300;2023-02-27T01:02:50;1.50;99.90
19538;DHT22;9914;51.008;4.300;2023-02-27T01:05:17;1.50;99.90
19538;DHT22;9914;51.008;4.300;2023-02-27T01:07:42;1.50;99.90
19538;DHT22;9914;51.008;4.300;2023-02-27T01:10:10;1.50;99.90
19538;DHT22;9914;51.008;4.300;2023-02-27T01:12:36;1.50;99.90
19538;DHT22;9914;51.008;4.300;2023-02-27T01:15:02;1.40;99.90
19538;DHT22;9914;51.008;4.300;2023-02-27T01:17:28;1.40;99.90
19538;DHT22;9914;51.008;4.300;2023-02-27T01:19:54;1.40;99.90
19538;DHT22;9914;51.008;4.300;2023-02-27T01:22:19;1.30;99.90
19538;DHT22;9914;51.008;4.300;2023-02-27T01:24:45;1.30;99.90
19538;DHT22;9914;51.008;4.300;2023-02-27T01:27:10;1.30;99.90
19538;DHT22;9914;51.008;4.300;2023-02-27T01:29:36;1.30;99.90
19538;DHT22;9914;51.008;4.300;2023-02-27T01:32:01;1.30;99.90
19538;DHT22;9914;51.008;4.300;2023-02-27T01:34:27;1.30;99.90
19538;DHT22;9914;51.008;4.300;2023-02-27T01:36:53;1.20;99.90
19538;DHT22;9914;51.008;4.300;2023-02-27T01:39:18;1.20;99.90
19538;DHT22;9914;51.008;4.300;2023-02-27T01:41:45;1.30;99.90
19538;DHT22;9914;51.008;4.300;2023-02-27T01:44:12;1.30;99.90
19538;DHT22;9914;51.008;4.300;2023-02-27T01:46:38;1.30;99.90
19538;DHT22;9914;51.008;4.300;2023-02-27T01:51:39;1.50;99.90
19538;DHT22;9914;51.008;4.300;2023-02-27T01:54:07;1.60;99.90
19538;DHT22;9914;51.008;4.300;2023-02-27T01:56:34;1.60;99.90
19538;DHT22;9914;51.008;4.300;2023-02-27T01:59:03;1.50;99.90
19538;DHT22;9914;51.008;4.300;2023-02-27T02:01:32;1.30;99.90
19538;DHT22;9914;51.008;4.300;2023-02-27T02:04:25;1.10;99.90
19538;DHT22;9914;51.008;4.300;2023-02-27T02:06:59;1.00;99.90
19538;DHT22;9914;51.008;4.300;2023-02-27T02:09:26;0.90;99.90
19538;DHT22;9914;51.008;4.300;2023-02-27T02:11:53;0.90;99.90
19538;DHT22;9914;51.008;4.300;2023-02-27T02:14:19;0.90;99.90
19538;DHT22;9914;51.008;4.300;2023-02-27T02:19:48;0.90;99.90
19538;DHT22;9914;51.008;4.300;2023-02-27T02:41:53;0.70;99.90
19538;DHT22;9914;51.008;4.300;2023-02-27T02:44:41;0.60;99.90
19538;DHT22;9914;51.008;4.300;2023-02-27T03:00:29;0.70;99.90
19538;DHT22;9914;51.008;4.300;2023-02-27T03:03:11;0.60;99.90
19538;DHT22;9914;51.008;4.300;2023-02-27T03:05:50;0.60;99.90
19538;DHT22;9914;51.008;4.300;2023-02-27T03:08:22;0.70;99.90
19538;DHT22;9914;51.008;4.300;2023-02-27T03:11:00;0.70;99.90
19538;DHT22;9914;51.008;4.300;2023-02-27T03:16:25;0.50;99.90
19538;DHT22;9914;51.008;4.300;2023-02-27T03:19:05;0.70;99.90
19538;DHT22;9914;51.008;4.300;2023-02-27T03:21:54;0.80;99.90
19538;DHT22;9914;51.008;4.300;2023-02-27T03:24:32;0.70;99.90
19538;DHT22;9914;51.008;4.300;2023-02-27T03:27:00;0.50;99.90
19538;DHT22;9914;51.008;4.300;2023-02-27T03:32:20;0.60;99.90
19538;DHT22;9914;51.008;4.300;2023-02-27T03:34:47;0.60;99.90
19538;DHT22;9914;51.008;4.300;2023-02-27T03:45:17;0.50;99.90
19538;DHT22;9914;51.008;4.300;2023-02-27T03:47:44;0.60;99.90
19538;DHT22;9914;51.008;4.300;2023-02-27T03:50:10;0.60;99.90
19538;DHT22;9914;51.008;4.300;2023-02-27T03:52:36;0.50;99.90
19538;DHT22;9914;51.008;4.300;2023-02-27T03:55:12;0.50;99.90
19538;DHT22;9914;51.008;4.300;2023-02-27T03:57:39;0.50;99.90
19538;DHT22;9914;51.008;4.300;2023-02-27T04:00:08;0.40;99.90
19538;DHT22;9914;51.008;4.300;2023-02-27T04:02:36;0.40;99.90
19538;DHT22;9914;51.008;4.300;2023-02-27T04:05:02;0.40;99.90
19538;DHT22;9914;51.008;4.300;2023-02-27T04:13:39;0.50;99.90
19538;DHT22;9914;51.008;4.300;2023-02-27T04:16:18;0.40;99.90
19538;DHT22;9914;51.008;4.300;2023-02-27T04:27:18;0.60;99.90
19538;DHT22;9914;51.008;4.300;2023-02-27T04:32:44;0.60;99.90
19538;DHT22;9914;51.008;4.300;2023-02-27T04:38:02;0.30;99.90
19538;DHT22;9914;51.008;4.300;2023-02-27T04:40:53;0.20;99.90
19538;DHT22;9914;51.008;4.300;2023-02-27T04:43:23;0.10;99.90
19538;DHT22;9914;51.008;4.300;2023-02-27T04:45:49;0.20;99.90
19538;DHT22;9914;51.008;4.300;2023-02-27T04:48:20;0.30;99.90
19538;DHT22;9914;51.008;4.300;2023-02-27T04:50:53;0.20;99.90
19538;DHT22;9914;51.008;4.300;2023-02-27T04:53:24;0.30;99.90
19538;DHT22;9914;51.008;4.300;2023-02-27T04:55:53;0.20;99.90
19538;DHT22;9914;51.008;4.300;2023-02-27T04:58:27;0.10;99.90
19538;DHT22;9914;51.008;4.300;2023-02-27T05:00:58;0.10;99.90
19538;DHT22;9914;51.008;4.300;2023-02-27T05:03:31;0.10;99.90
19538;DHT22;9914;51.008;4.300;2023-02-27T05:06:00;0.10;99.90
19538;DHT22;9914;51.008;4.300;2023-02-27T05:08:38;0.00;99.90
19538;DHT22;9914;51.008;4.300;2023-02-27T05:11:22;0.10;99.90
19538;DHT22;9914;51.008;4.300;2023-02-27T05:13:57;0.20;99.90
19538;DHT22;9914;51.008;4.300;2023-02-27T05:16:54;0.30;99.90
19538;DHT22;9914;51.008;4.300;2023-02-27T05:19:22;0.20;99.90
19538;DHT22;9914;51.008;4.300;2023-02-27T05:24:37;0.30;99.90
19538;DHT22;9914;51.008;4.300;2023-02-27T05:29:51;0.80;99.90
19538;DHT22;9914;51.008;4.300;2023-02-27T05:38:28;0.50;99.90
19538;DHT22;9914;51.008;4.300;2023-02-27T05:41:04;0.40;99.90
19538;DHT22;9914;51.008;4.300;2023-02-27T05:43:39;0.20;99.90
19538;DHT22;9914;51.008;4.300;2023-02-27T05:46:10;0.10;99.90
19538;DHT22;9914;51.008;4.300;2023-02-27T05:48:42;0.10;99.90
19538;DHT22;9914;51.008;4.300;2023-02-27T05:51:10;0.10;99.90
19538;DHT22;9914;51.008;4.300;2023-02-27T05:53:43;0.10;99.90
19538;DHT22;9914;51.008;4.300;2023-02-27T05:56:13;0.30;99.90
19538;DHT22;9914;51.008;4.300;2023-02-27T05:58:54;0.40;99.90
19538;DHT22;9914;51.008;4.300;2023-02-27T06:01:22;0.30;99.90
19538;DHT22;9914;51.008;4.300;2023-02-27T06:03:47;0.40;99.90
19538;DHT22;9914;51.008;4.300;2023-02-27T06:06:16;0.40;99.90
19538;DHT22;9914;51.008;4.300;2023-02-27T06:08:43;0.20;99.90
19538;DHT22;9914;51.008;4.300;2023-02-27T06:11:09;0.00;99.90
19538;DHT22;9914;51.008;4.300;2023-02-27T06:13:35;0.10;99.90
19538;DHT22;9914;51.008;4.300;2023-02-27T06:16:01;0.10;99.90
19538;DHT22;9914;51.008;4.300;2023-02-27T06:18:26;0.00;99.90
19538;DHT22;9914;51.008;4.300;2023-02-27T06:20:52;0.10;99.90
19538;DHT22;9914;51.008;4.300;2023-02-27T06:23:18;0.20;99.90
19538;DHT22;9914;51.008;4.300;2023-02-27T06:25:44;0.10;99.90
19538;DHT22;9914;51.008;4.300;2023-02-27T06:28:10;0.20;99.90
19538;DHT22;9914;51.008;4.300;2023-02-27T06:30:36;0.10;99.90
19538;DHT22;9914;51.008;4.300;2023-02-27T06:33:03;0.10;99.90
19538;DHT22;9914;51.008;4.300;2023-02-27T06:35:29;0.10;99.90
19538;DHT22;9914;51.008;4.300;2023-02-27T06:37:55;0.20;99.90
19538;DHT22;9914;51.008;4.300;2023-02-27T06:40:21;0.50;99.90
19538;DHT22;9914;51.008;4.300;2023-02-27T06:42:47;0.50;99.90
19538;DHT22;9914;51.008;4.300;2023-02-27T06:45:14;0.40;99.90
19538;DHT22;9914;51.008;4.300;2023-02-27T06:47:40;0.30;99.90
19538;DHT22;9914;51.008;4.300;2023-02-27T06:50:08;0.20;99.90
19538;DHT22;9914;51.008;4.300;2023-02-27T06:52:35;0.20;99.90
19538;DHT22;9914;51.008;4.300;2023-02-27T06:55:01;0.20;99.90
19538;DHT22;9914;51.008;4.300;2023-02-27T06:57:27;0.30;99.90
19538;DHT22;9914;51.008;4.300;2023-02-27T06:59:52;0.30;99.90
19538;DHT22;9914;51.008;4.300;2023-02-27T07:02:19;0.40;99.90
19538;DHT22;9914;51.008;4.300;2023-02-27T07:04:44;0.40;99.90
19538;DHT22;9914;51.008;4.300;2023-02-27T07:07:10;0.40;99.90
19538;DHT22;9914;51.008;4.300;2023-02-27T07:09:36;0.40;99.90
19538;DHT22;9914;51.008;4.300;2023-02-27T07:12:02;0.60;99.90
19538;DHT22;9914;51.008;4.300;2023-02-27T07:14:28;0.60;99.90
19538;DHT22;9914;51.008;4.300;2023-02-27T07:16:54;0.50;99.90
19538;DHT22;9914;51.008;4.300;2023-02-27T07:19:21;0.40;99.90
19538;DHT22;9914;51.008;4.300;2023-02-27T07:21:47;0.40;99.90
19538;DHT22;9914;51.008;4.300;2023-02-27T07:24:12;0.30;99.90
19538;DHT22;9914;51.008;4.300;2023-02-27T07:26:38;0.30;99.90
19538;DHT22;9914;51.008;4.300;2023-02-27T07:29:05;0.30;99.90
19538;DHT22;9914;51.008;4.300;2023-02-27T07:31:31;0.30;99.90
19538;DHT22;9914;51.008;4.300;2023-02-27T07:33:56;0.40;99.90
19538;DHT22;9914;51.008;4.300;2023-02-27T07:36:22;0.60;99.90
19538;DHT22;9914;51.008;4.300;2023-02-27T07:38:48;0.80;99.90
19538;DHT22;9914;51.008;4.300;2023-02-27T07:41:14;0.90;99.90
19538;DHT22;9914;51.008;4.300;2023-02-27T07:43:40;0.90;99.90
19538;DHT22;9914;51.008;4.300;2023-02-27T07:46:05;0.80;99.90
19538;DHT22;9914;51.008;4.300;2023-02-27T07:48:32;1.00;99.90
19538;DHT22;9914;51.008;4.300;2023-02-27T07:50:58;0.90;99.90
19538;DHT22;9914;51.008;4.300;2023-02-27T07:53:24;0.80;99.90
19538;DHT22;9914;51.008;4.300;2023-02-27T07:55:50;0.80;99.90
19538;DHT22;9914;51.008;4.300;2023-02-27T07:58:16;0.80;99.90
19538;DHT22;9914;51.008;4.300;2023-02-27T08:00:41;0.90;99.90
19538;DHT22;9914;51.008;4.300;2023-02-27T08:03:08;0.80;99.90
19538;DHT22;9914;51.008;4.300;2023-02-27T08:05:34;1.10;99.90
19538;DHT22;9914;51.008;4.300;2023-02-27T08:08:00;1.40;99.90
19538;DHT22;9914;51.008;4.300;2023-02-27T08:10:26;1.50;99.90
19538;DHT22;9914;51.008;4.300;2023-02-27T08:12:52;1.50;99.90
19538;DHT22;9914;51.008;4.300;2023-02-27T08:15:17;1.50;99.90
19538;DHT22;9914;51.008;4.300;2023-02-27T08:17:46;1.50;99.90
19538;DHT22;9914;51.008;4.300;2023-02-27T08:20:13;1.40;99.90
19538;DHT22;9914;51.008;4.300;2023-02-27T08:22:40;1.50;99.90
19538;DHT22;9914;51.008;4.300;2023-02-27T08:25:07;1.60;99.90
19538;DHT22;9914;51.008;4.300;2023-02-27T08:27:36;1.80;99.90
19538;DHT22;9914;51.008;4.300;2023-02-27T08:30:06;1.80;99.90
19538;DHT22;9914;51.008;4.300;2023-02-27T08:32:33;1.80;99.90
19538;DHT22;9914;51.008;4.300;2023-02-27T08:34:59;1.90;99.90
19538;DHT22;9914;51.008;4.300;2023-02-27T08:37:24;1.90;99.90
19538;DHT22;9914;51.008;4.300;2023-02-27T08:39:50;1.90;99.90
19538;DHT22;9914;51.008;4.300;2023-02-27T08:42:16;1.90;99.90
19538;DHT22;9914;51.008;4.300;2023-02-27T08:44:41;2.20;99.90
19538;DHT22;9914;51.008;4.300;2023-02-27T08:47:07;2.30;99.90
19538;DHT22;9914;51.008;4.300;2023-02-27T08:49:33;2.30;99.90
19538;DHT22;9914;51.008;4.300;2023-02-27T08:51:59;2.20;99.90
19538;DHT22;9914;51.008;4.300;2023-02-27T08:54:25;2.20;99.90
19538;DHT22;9914;51.008;4.300;2023-02-27T08:56:51;2.20;99.90
19538;DHT22;9914;51.008;4.300;2023-02-27T08:59:16;2.20;99.90
19538;DHT22;9914;51.008;4.300;2023-02-27T09:01:42;2.30;99.90
19538;DHT22;9914;51.008;4.300;2023-02-27T09:04:08;2.50;99.90
19538;DHT22;9914;51.008;4.300;2023-02-27T09:06:35;2.60;99.90
19538;DHT22;9914;51.008;4.300;2023-02-27T09:09:01;2.70;99.90
19538;DHT22;9914;51.008;4.300;2023-02-27T09:11:27;2.80;99.90
19538;DHT22;9914;51.008;4.300;2023-02-27T09:13:53;2.90;99.90
19538;DHT22;9914;51.008;4.300;2023-02-27T09:16:20;3.00;99.90
19538;DHT22;9914;51.008;4.300;2023-02-27T09:18:46;3.20;99.90
19538;DHT22;9914;51.008;4.300;2023-02-27T09:21:12;3.20;99.90
19538;DHT22;9914;51.008;4.300;2023-02-27T09:23:38;3.30;99.90
19538;DHT22;9914;51.008;4.300;2023-02-27T09:26:04;3.40;99.90
19538;DHT22;9914;51.008;4.300;2023-02-27T09:28:31;3.30;99.90
19538;DHT22;9914;51.008;4.300;2023-02-27T09:31:04;3.30;99.90
19538;DHT22;9914;51.008;4.300;2023-02-27T09:33:31;3.40;99.90
19538;DHT22;9914;51.008;4.300;2023-02-27T09:35:57;3.60;99.90
19538;DHT22;9914;51.008;4.300;2023-02-27T09:38:22;3.70;99.90
19538;DHT22;9914;51.008;4.300;2023-02-27T09:40:50;3.80;99.90
19538;DHT22;9914;51.008;4.300;2023-02-27T09:43:23;3.90;99.90
19538;DHT22;9914;51.008;4.300;2023-02-27T09:45:54;3.90;99.90
19538;DHT22;9914;51.008;4.300;2023-02-27T09:48:30;4.20;99.90
19538;DHT22;9914;51.008;4.300;2023-02-27T09:51:00;4.10;99.90
19538;DHT22;9914;51.008;4.300;2023-02-27T09:53:38;4.10;99.90
19538;DHT22;9914;51.008;4.300;2023-02-27T09:59:02;4.20;99.90
19538;DHT22;9914;51.008;4.300;2023-02-27T10:01:51;4.10;99.90
19538;DHT22;9914;51.008;4.300;2023-02-27T10:06:51;4.20;99.90
19538;DHT22;9914;51.008;4.300;2023-02-27T10:14:41;4.60;99.90
19538;DHT22;9914;51.008;4.300;2023-02-27T10:17:39;4.70;99.90
19538;DHT22;9914;51.008;4.300;2023-02-27T10:20:19;4.70;99.90
19538;DHT22;9914;51.008;4.300;2023-02-27T10:22:48;4.80;99.90
19538;DHT22;9914;51.008;4.300;2023-02-27T10:25:17;4.80;99.90
19538;DHT22;9914;51.008;4.300;2023-02-27T10:27:45;5.00;99.90
19538;DHT22;9914;51.008;4.300;2023-02-27T10:32:41;5.10;99.90
19538;DHT22;9914;51.008;4.300;2023-02-27T10:35:25;5.10;99.90
19538;DHT22;9914;51.008;4.300;2023-02-27T10:37:58;5.20;99.90
19538;DHT22;9914;51.008;4.300;2023-02-27T10:40:24;5.40;99.90
19538;DHT22;9914;51.008;4.300;2023-02-27T10:42:51;5.50;99.90
19538;DHT22;9914;51.008;4.300;2023-02-27T10:45:18;5.40;99.90
19538;DHT22;9914;51.008;4.300;2023-02-27T10:47:44;5.40;99.90
19538;DHT22;9914;51.008;4.300;2023-02-27T10:50:43;5.60;99.90
19538;DHT22;9914;51.008;4.300;2023-02-27T10:53:26;5.30;99.90
19538;DHT22;9914;51.008;4.300;2023-02-27T10:56:01;5.20;99.90
19538;DHT22;9914;51.008;4.300;2023-02-27T10:58:31;5.30;99.90
19538;DHT22;9914;51.008;4.300;2023-02-27T11:00:58;5.60;99.90
19538;DHT22;9914;51.008;4.300;2023-02-27T11:03:31;5.80;99.90
19538;DHT22;9914;51.008;4.300;2023-02-27T11:06:06;5.80;99.90
19538;DHT22;9914;51.008;4.300;2023-02-27T11:08:33;5.70;99.90
19538;DHT22;9914;51.008;4.300;2023-02-27T11:11:02;5.60;99.90
19538;DHT22;9914;51.008;4.300;2023-02-27T11:13:31;5.70;99.90
19538;DHT22;9914;51.008;4.300;2023-02-27T11:18:28;5.60;99.90
19538;DHT22;9914;51.008;4.300;2023-02-27T11:21:21;5.80;99.90
19538;DHT22;9914;51.008;4.300;2023-02-27T11:23:53;5.80;99.90
19538;DHT22;9914;51.008;4.300;2023-02-27T11:26:34;6.00;99.90
19538;DHT22;9914;51.008;4.300;2023-02-27T11:31:34;6.20;99.90
19538;DHT22;9914;51.008;4.300;2023-02-27T11:34:01;6.20;99.90
19538;DHT22;9914;51.008;4.300;2023-02-27T11:36:43;6.20;99.90
19538;DHT22;9914;51.008;4.300;2023-02-27T11:39:31;6.60;99.90
19538;DHT22;9914;51.008;4.300;2023-02-27T11:42:06;6.60;99.90
19538;DHT22;9914;51.008;4.300;2023-02-27T11:44:36;6.60;99.90
19538;DHT22;9914;51.008;4.300;2023-02-27T11:47:13;6.60;99.90
19538;DHT22;9914;51.008;4.300;2023-02-27T11:50:09;6.70;99.90
19538;DHT22;9914;51.008;4.300;2023-02-27T11:55:24;6.70;99.90
19538;DHT22;9914;51.008;4.300;2023-02-27T11:57:58;6.70;99.90
19538;DHT22;9914;51.008;4.300;2023-02-27T12:00:32;6.70;99.90
19538;DHT22;9914;51.008;4.300;2023-02-27T12:05:45;6.80;99.90
19538;DHT22;9914;51.008;4.300;2023-02-27T12:11:05;7.10;99.90
19538;DHT22;9914;51.008;4.300;2023-02-27T12:13:38;6.90;99.90
19538;DHT22;9914;51.008;4.300;2023-02-27T12:16:43;6.60;99.90
19538;DHT22;9914;51.008;4.300;2023-02-27T12:19:28;6.60;99.90
19538;DHT22;9914;51.008;4.300;2023-02-27T12:22:16;6.80;99.90
19538;DHT22;9914;51.008;4.300;2023-02-27T12:24:52;7.00;99.90
19538;DHT22;9914;51.008;4.300;2023-02-27T12:27:31;7.00;99.90
19538;DHT22;9914;51.008;4.300;2023-02-27T12:30:38;6.90;99.90
19538;DHT22;9914;51.008;4.300;2023-02-27T12:35:42;6.70;99.90
19538;DHT22;9914;51.008;4.300;2023-02-27T12:38:12;7.00;99.90
19538;DHT22;9914;51.008;4.300;2023-02-27T12:41:05;7.40;99.90
19538;DHT22;9914;51.008;4.300;2023-02-27T12:44:05;7.20;99.90
19538;DHT22;9914;51.008;4.300;2023-02-27T12:49:40;7.20;99.90
19538;DHT22;9914;51.008;4.300;2023-02-27T12:52:16;7.00;99.90
19538;DHT22;9914;51.008;4.300;2023-02-27T13:03:53;7.20;99.90
19538;DHT22;9914;51.008;4.300;2023-02-27T13:09:17;7.40;99.90
19538;DHT22;9914;51.008;4.300;2023-02-27T13:12:07;7.10;99.90
19538;DHT22;9914;51.008;4.300;2023-02-27T13:17:46;7.30;99.90
19538;DHT22;9914;51.008;4.300;2023-02-27T13:25:37;7.60;99.90
19538;DHT22;9914;51.008;4.300;2023-02-27T13:28:07;7.70;99.90
19538;DHT22;9914;51.008;4.300;2023-02-27T13:30:40;7.60;99.90
19538;DHT22;9914;51.008;4.300;2023-02-27T13:33:21;7.60;99.90
19538;DHT22;9914;51.008;4.300;2023-02-27T13:36:17;7.70;99.90
19538;DHT22;9914;51.008;4.300;2023-02-27T13:38:47;7.80;99.90
19538;DHT22;9914;51.008;4.300;2023-02-27T13:46:24;7.60;99.90
19538;DHT22;9914;51.008;4.300;2023-02-27T13:48:51;7.40;99.90
19538;DHT22;9914;51.008;4.300;2023-02-27T13:56:46;7.80;99.90
19538;DHT22;9914;51.008;4.300;2023-02-27T13:59:27;7.80;99.90
19538;DHT22;9914;51.008;4.300;2023-02-27T14:02:03;7.90;99.90
19538;DHT22;9914;51.008;4.300;2023-02-27T14:04:36;8.00;99.90
19538;DHT22;9914;51.008;4.300;2023-02-27T14:07:05;8.00;99.90
19538;DHT22;9914;51.008;4.300;2023-02-27T14:09:37;8.00;99.90
19538;DHT22;9914;51.008;4.300;2023-02-27T14:12:05;7.80;99.90
19538;DHT22;9914;51.008;4.300;2023-02-27T14:14:44;7.60;99.90
19538;DHT22;9914;51.008;4.300;2023-02-27T14:19:55;7.80;99.90
19538;DHT22;9914;51.008;4.300;2023-02-27T14:24:58;8.10;99.90
19538;DHT22;9914;51.008;4.300;2023-02-27T14:30:05;7.70;99.90
19538;DHT22;9914;51.008;4.300;2023-02-27T14:32:36;7.50;99.90
19538;DHT22;9914;51.008;4.300;2023-02-27T14:35:04;7.30;99.90
19538;DHT22;9914;51.008;4.300;2023-02-27T14:37:30;7.30;99.90
19538;DHT22;9914;51.008;4.300;2023-02-27T14:39:58;7.30;99.90
19538;DHT22;9914;51.008;4.300;2023-02-27T14:45:15;7.10;99.90
19538;DHT22;9914;51.008;4.300;2023-02-27T14:47:41;7.30;99.90
19538;DHT22;9914;51.008;4.300;2023-02-27T14:52:52;8.00;99.90
19538;DHT22;9914;51.008;4.300;2023-02-27T15:00:31;7.90;99.90
19538;DHT22;9914;51.008;4.300;2023-02-27T15:02:58;7.60;99.90
19538;DHT22;9914;51.008;4.300;2023-02-27T15:05:28;7.40;99.90
19538;DHT22;9914;51.008;4.300;2023-02-27T15:07:55;7.20;99.90
19538;DHT22;9914;51.008;4.300;2023-02-27T15:10:28;7.00;99.90
19538;DHT22;9914;51.008;4.300;2023-02-27T15:12:59;7.10;99.90
19538;DHT22;9914;51.008;4.300;2023-02-27T15:15:25;7.00;99.90
19538;DHT22;9914;51.008;4.300;2023-02-27T15:17:53;6.80;99.90
19538;DHT22;9914;51.008;4.300;2023-02-27T15:20:24;6.90;99.90
19538;DHT22;9914;51.008;4.300;2023-02-27T15:22:52;6.90;99.90
19538;DHT22;9914;51.008;4.300;2023-02-27T15:25:38;7.10;99.90
19538;DHT22;9914;51.008;4.300;2023-02-27T15:28:23;7.30;99.90
19538;DHT22;9914;51.008;4.300;2023-02-27T15:30:50;7.10;99.90
19538;DHT22;9914;51.008;4.300;2023-02-27T15:33:17;6.90;99.90
19538;DHT22;9914;51.008;4.300;2023-02-27T15:35:46;7.10;99.90
19538;DHT22;9914;51.008;4.300;2023-02-27T15:38:33;7.20;99.90
19538;DHT22;9914;51.008;4.300;2023-02-27T15:41:01;7.50;99.90
19538;DHT22;9914;51.008;4.300;2023-02-27T15:43:28;7.40;99.90
19538;DHT22;9914;51.008;4.300;2023-02-27T15:45:55;7.30;99.90
19538;DHT22;9914;51.008;4.300;2023-02-27T15:48:23;7.30;99.90
19538;DHT22;9914;51.008;4.300;2023-02-27T15:50:54;7.60;99.90
19538;DHT22;9914;51.008;4.300;2023-02-27T15:53:25;7.60;99.90
19538;DHT22;9914;51.008;4.300;2023-02-27T15:55:55;7.10;99.90
19538;DHT22;9914;51.008;4.300;2023-02-27T15:58:25;6.90;99.90
19538;DHT22;9914;51.008;4.300;2023-02-27T16:00:59;7.10;99.90
19538;DHT22;9914;51.008;4.300;2023-02-27T16:03:28;7.10;99.90
19538;DHT22;9914;51.008;4.300;2023-02-27T16:05:57;7.20;99.90
19538;DHT22;9914;51.008;4.300;2023-02-27T16:08:23;6.90;99.90
19538;DHT22;9914;51.008;4.300;2023-02-27T16:10:49;6.60;99.90
19538;DHT22;9914;51.008;4.300;2023-02-27T16:13:32;6.60;99.90
19538;DHT22;9914;51.008;4.300;2023-02-27T16:16:05;7.10;99.90
19538;DHT22;9914;51.008;4.300;2023-02-27T16:18:43;7.60;99.90
19538;DHT22;9914;51.008;4.300;2023-02-27T16:21:17;7.90;99.90
19538;DHT22;9914;51.008;4.300;2023-02-27T16:23:44;7.70;99.90
19538;DHT22;9914;51.008;4.300;2023-02-27T16:26:29;7.50;99.90
19538;DHT22;9914;51.008;4.300;2023-02-27T16:29:01;7.50;99.90
19538;DHT22;9914;51.008;4.300;2023-02-27T16:31:45;7.10;99.90
19538;DHT22;9914;51.008;4.300;2023-02-27T16:34:21;7.20;99.90
19538;DHT22;9914;51.008;4.300;2023-02-27T16:36:56;7.60;99.90
19538;DHT22;9914;51.008;4.300;2023-02-27T16:39:23;7.90;99.90
19538;DHT22;9914;51.008;4.300;2023-02-27T16:41:52;8.20;99.90
19538;DHT22;9914;51.008;4.300;2023-02-27T16:44:17;8.10;99.90
19538;DHT22;9914;51.008;4.300;2023-02-27T16:46:44;8.10;99.90
19538;DHT22;9914;51.008;4.300;2023-02-27T16:49:21;7.80;99.90
19538;DHT22;9914;51.008;4.300;2023-02-27T16:51:47;7.50;99.90
19538;DHT22;9914;51.008;4.300;2023-02-27T16:54:13;7.60;99.90
19538;DHT22;9914;51.008;4.300;2023-02-27T16:56:41;7.30;99.90
19538;DHT22;9914;51.008;4.300;2023-02-27T16:59:29;7.10;99.90
19538;DHT22;9914;51.008;4.300;2023-02-27T17:01:56;6.70;99.90
19538;DHT22;9914;51.008;4.300;2023-02-27T17:04:23;6.40;99.90
19538;DHT22;9914;51.008;4.300;2023-02-27T17:06:49;6.20;99.90
19538;DHT22;9914;51.008;4.300;2023-02-27T17:09:15;6.00;99.90
19538;DHT22;9914;51.008;4.300;2023-02-27T17:11:41;5.90;99.90
19538;DHT22;9914;51.008;4.300;2023-02-27T17:14:06;5.90;99.90
19538;DHT22;9914;51.008;4.300;2023-02-27T17:16:32;5.90;99.90
19538;DHT22;9914;51.008;4.300;2023-02-27T17:18:57;5.80;99.90
19538;DHT22;9914;51.008;4.300;2023-02-27T17:21:23;5.80;99.90
19538;DHT22;9914;51.008;4.300;2023-02-27T17:23:49;5.60;99.90
19538;DHT22;9914;51.008;4.300;2023-02-27T17:26:14;5.50;99.90
19538;DHT22;9914;51.008;4.300;2023-02-27T17:28:40;5.60;99.90
19538;DHT22;9914;51.008;4.300;2023-02-27T17:31:10;5.50;99.90
19538;DHT22;9914;51.008;4.300;2023-02-27T17:33:36;5.50;99.90
19538;DHT22;9914;51.008;4.300;2023-02-27T17:36:04;5.40;99.90
19538;DHT22;9914;51.008;4.300;2023-02-27T17:38:30;5.30;99.90
19538;DHT22;9914;51.008;4.300;2023-02-27T17:40:55;5.30;99.90
19538;DHT22;9914;51.008;4.300;2023-02-27T17:43:21;5.30;99.90
19538;DHT22;9914;51.008;4.300;2023-02-27T17:45:46;5.50;99.90
19538;DHT22;9914;51.008;4.300;2023-02-27T17:48:12;5.30;99.90
19538;DHT22;9914;51.008;4.300;2023-02-27T17:50:38;5.20;99.90
19538;DHT22;9914;51.008;4.300;2023-02-27T17:53:04;5.20;99.90
19538;DHT22;9914;51.008;4.300;2023-02-27T17:55:30;5.20;99.90
19538;DHT22;9914;51.008;4.300;2023-02-27T17:57:55;5.00;99.90
19538;DHT22;9914;51.008;4.300;2023-02-27T18:00:21;4.90;99.90
19538;DHT22;9914;51.008;4.300;2023-02-27T18:02:47;4.90;99.90
19538;DHT22;9914;51.008;4.300;2023-02-27T18:05:13;4.80;99.90
19538;DHT22;9914;51.008;4.300;2023-02-27T18:07:39;4.90;99.90
19538;DHT22;9914;51.008;4.300;2023-02-27T18:10:06;4.90;99.90
19538;DHT22;9914;51.008;4.300;2023-02-27T18:12:33;5.00;99.90
19538;DHT22;9914;51.008;4.300;2023-02-27T18:14:59;5.10;99.90
19538;DHT22;9914;51.008;4.300;2023-02-27T18:17:25;5.00;99.90
19538;DHT22;9914;51.008;4.300;2023-02-27T18:19:51;4.80;99.90
19538;DHT22;9914;51.008;4.300;2023-02-27T18:22:16;4.80;99.90
19538;DHT22;9914;51.008;4.300;2023-02-27T18:24:42;4.90;99.90
19538;DHT22;9914;51.008;4.300;2023-02-27T18:27:08;4.90;99.90
19538;DHT22;9914;51.008;4.300;2023-02-27T18:29:33;4.70;99.90
19538;DHT22;9914;51.008;4.300;2023-02-27T18:31:59;4.70;99.90
19538;DHT22;9914;51.008;4.300;2023-02-27T18:34:25;4.80;99.90
19538;DHT22;9914;51.008;4.300;2023-02-27T18:36:50;4.80;99.90
19538;DHT22;9914;51.008;4.300;2023-02-27T18:39:17;4.60;99.90
19538;DHT22;9914;51.008;4.300;2023-02-27T18:41:42;4.50;99.90
19538;DHT22;9914;51.008;4.300;2023-02-27T18:44:08;4.40;99.90
19538;DHT22;9914;51.008;4.300;2023-02-27T18:46:36;4.40;99.90
19538;DHT22;9914;51.008;4.300;2023-02-27T18:49:02;4.30;99.90
19538;DHT22;9914;51.008;4.300;2023-02-27T18:51:28;4.40;99.90
19538;DHT22;9914;51.008;4.300;2023-02-27T18:53:54;4.60;99.90
19538;DHT22;9914;51.008;4.300;2023-02-27T18:56:22;4.40;99.90
19538;DHT22;9914;51.008;4.300;2023-02-27T18:58:49;4.30;99.90
19538;DHT22;9914;51.008;4.300;2023-02-27T19:01:23;4.30;99.90
19538;DHT22;9914;51.008;4.300;2023-02-27T19:03:50;4.30;99.90
19538;DHT22;9914;51.008;4.300;2023-02-27T19:06:16;4.10;99.90